createdAt,value
2023-01-15T00:05:03.565Z,3.92
2023-01-15T00:10:13.011Z,3.93
2023-01-15T00:15:18.649Z,3.93
2023-01-15T00:20:24.420Z,3.95
2023-01-15T00:25:48.974Z,3.97
2023-01-15T00:30:54.901Z,3.97
2023-01-15T00:36:00.830Z,3.97
2023-01-15T00:41:07.353Z,4.00
2023-01-15T00:46:14.313Z,4.00
2023-01-15T00:51:20.260Z,3.97
2023-01-15T00:56:26.112Z,3.94
2023-01-15T01:01:32.239Z,3.94
2023-01-15T01:06:38.379Z,3.95
2023-01-15T01:11:44.487Z,3.93
2023-01-15T01:16:50.322Z,3.96
2023-01-15T01:21:56.030Z,3.99
2023-01-15T01:27:01.740Z,3.98
2023-01-15T01:32:07.756Z,3.92
2023-01-15T01:37:13.905Z,3.88
2023-01-15T01:42:20.148Z,3.85
2023-01-15T01:47:29.335Z,3.81
2023-01-15T01:52:41.332Z,3.79
2023-01-15T01:57:50.664Z,3.79
2023-01-15T02:02:57.452Z,3.74
2023-01-15T02:08:03.913Z,3.69
2023-01-15T02:13:16.065Z,3.68
2023-01-15T02:18:29.632Z,3.64
2023-01-15T02:24:03.124Z,3.58
2023-01-15T02:29:14.092Z,3.53
2023-01-15T02:34:24.086Z,3.47
2023-01-15T02:39:32.323Z,3.43
2023-01-15T02:44:41.676Z,3.44
2023-01-15T02:49:50.075Z,3.42
2023-01-15T02:55:04.191Z,3.39
2023-01-15T03:00:15.193Z,3.36
2023-01-15T03:05:26.941Z,3.33
2023-01-15T03:10:40.067Z,3.27
2023-01-15T03:16:12.013Z,3.18
2023-01-15T03:21:23.005Z,3.16
2023-01-15T03:26:34.123Z,3.18
2023-01-15T03:31:40.729Z,3.20
2023-01-15T03:36:46.621Z,3.25
2023-01-15T03:42:03.210Z,3.31
2023-01-15T03:47:17.350Z,3.34
2023-01-15T03:52:30.844Z,3.37
2023-01-15T03:57:41.309Z,3.41
2023-01-15T04:02:49.465Z,3.44
2023-01-15T04:07:59.076Z,3.45
2023-01-15T04:13:07.830Z,3.48
2023-01-15T04:18:14.419Z,3.54
2023-01-15T04:23:20.884Z,3.60
2023-01-15T04:28:27.204Z,3.63
2023-01-15T04:33:33.213Z,3.66
2023-01-15T04:38:39.570Z,3.68
2023-01-15T04:44:04.207Z,3.67
2023-01-15T04:49:13.189Z,3.65
2023-01-15T04:54:19.870Z,3.66
2023-01-15T04:59:27.461Z,3.68
2023-01-15T05:04:33.866Z,3.66
2023-01-15T05:09:39.894Z,3.63
2023-01-15T05:14:45.575Z,3.63
2023-01-15T05:19:51.618Z,3.60
2023-01-15T05:24:57.348Z,3.60
2023-01-15T05:30:03.029Z,3.61
2023-01-15T05:35:10.171Z,3.64
2023-01-15T05:40:16.519Z,3.64
2023-01-15T05:45:22.390Z,3.66
2023-01-15T05:50:29.083Z,3.70
2023-01-15T05:55:35.179Z,3.78
2023-01-15T06:00:40.920Z,3.85
2023-01-15T06:05:51.997Z,3.89
2023-01-15T06:10:57.977Z,3.93
2023-01-15T06:16:04.008Z,3.97
2023-01-15T06:21:11.981Z,4.00
2023-01-15T06:26:19.035Z,4.03
2023-01-15T06:31:27.035Z,4.00
2023-01-15T06:36:33.560Z,3.99
2023-01-15T06:41:58.663Z,3.99
2023-01-15T06:47:21.185Z,4.00
2023-01-15T06:52:29.619Z,4.04
2023-01-15T06:57:37.879Z,4.14
2023-01-15T07:02:43.711Z,4.18
2023-01-15T07:07:49.635Z,4.15
2023-01-15T07:12:55.417Z,4.07
2023-01-15T07:18:02.503Z,3.99
2023-01-15T07:23:08.280Z,3.87
2023-01-15T07:28:13.930Z,3.75
2023-01-15T07:33:19.978Z,3.69
2023-01-15T07:38:28.079Z,3.63
2023-01-15T07:43:52.460Z,3.59
2023-01-15T07:49:16.899Z,3.60
2023-01-15T07:54:22.788Z,3.62
2023-01-15T07:59:28.587Z,3.63
2023-01-15T08:04:34.496Z,3.67
2023-01-15T08:09:40.286Z,3.73
2023-01-15T08:15:05.179Z,3.79
2023-01-15T08:20:14.090Z,3.84
2023-01-15T08:25:22.512Z,3.93
2023-01-15T08:30:28.571Z,4.02
2023-01-15T08:35:34.623Z,4.10
2023-01-15T08:40:58.534Z,4.21
2023-01-15T08:46:07.029Z,4.28
2023-01-15T08:51:13.426Z,4.33
2023-01-15T08:56:20.764Z,4.39
2023-01-15T09:01:26.547Z,4.46
2023-01-15T09:06:32.541Z,4.49
2023-01-15T09:11:41.618Z,4.54
2023-01-15T09:16:47.327Z,4.57
2023-01-15T09:21:53.036Z,4.54
2023-01-15T09:26:58.932Z,4.53
2023-01-15T09:32:07.995Z,4.51
2023-01-15T09:37:13.978Z,4.48
2023-01-15T09:42:33.475Z,4.46
2023-01-15T09:47:47.021Z,4.41
2023-01-15T09:53:10.773Z,4.37
2023-01-15T09:58:20.056Z,4.36
2023-01-15T10:03:40.021Z,4.33
2023-01-15T10:08:47.866Z,4.31
2023-01-15T10:14:00.387Z,4.33
2023-01-15T10:19:08.985Z,4.35
2023-01-15T10:24:24.677Z,4.36
2023-01-15T10:29:36.495Z,4.37
2023-01-15T10:35:09.188Z,4.37
2023-01-15T10:40:39.101Z,4.38
2023-01-15T10:45:50.904Z,4.44
2023-01-15T10:51:00.594Z,4.46
2023-01-15T10:56:15.208Z,4.46
2023-01-15T11:01:25.238Z,4.48
2023-01-15T11:06:33.074Z,4.46
2023-01-15T11:11:59.305Z,4.47
2023-01-15T11:17:30.841Z,4.46
2023-01-15T11:22:40.236Z,4.43
2023-01-15T11:27:51.318Z,4.38
2023-01-15T11:33:01.230Z,4.37
2023-01-15T11:38:14.183Z,4.37
2023-01-15T11:43:43.939Z,4.39
2023-01-15T11:49:09.123Z,4.40
2023-01-15T11:54:16.953Z,4.36
2023-01-15T11:59:23.328Z,4.33
2023-01-15T12:04:34.892Z,4.35
2023-01-15T12:10:01.384Z,4.32
2023-01-15T12:15:22.167Z,4.32
2023-01-15T12:20:39.082Z,4.34
2023-01-15T12:25:56.335Z,4.35
2023-01-15T12:31:06.832Z,4.32
2023-01-15T12:36:19.171Z,4.33
2023-01-15T12:41:50.576Z,4.37
2023-01-15T12:46:56.670Z,4.38
2023-01-15T12:52:07.559Z,4.42
2023-01-15T12:57:19.271Z,4.48
2023-01-15T13:02:35.567Z,4.53
2023-01-15T13:07:46.027Z,4.55
2023-01-15T13:12:53.592Z,4.58
2023-01-15T13:18:05.267Z,4.58
2023-01-15T13:23:27.966Z,4.57
2023-01-15T13:28:44.990Z,4.58
2023-01-15T13:33:54.382Z,4.60
2023-01-15T13:39:03.644Z,4.61
2023-01-15T13:44:18.758Z,4.65
2023-01-15T13:49:30.686Z,4.68
2023-01-15T13:54:41.677Z,4.64
2023-01-15T13:59:48.713Z,4.64
2023-01-15T14:04:54.861Z,4.72
2023-01-15T14:10:23.576Z,4.71
2023-01-15T14:15:41.911Z,4.71
2023-01-15T14:20:59.647Z,4.75
2023-01-15T14:26:18.937Z,4.77
2023-01-15T14:31:46.981Z,4.76
2023-01-15T14:36:59.525Z,4.77
2023-01-15T14:42:30.060Z,4.83
2023-01-15T14:47:46.146Z,4.83
2023-01-15T14:52:53.775Z,4.78
2023-01-15T14:58:03.361Z,4.77
2023-01-15T15:03:20.030Z,4.79
2023-01-15T15:08:35.037Z,4.79
2023-01-15T15:13:47.312Z,4.81
2023-01-15T15:19:01.698Z,4.85
2023-01-15T15:24:16.868Z,4.88
2023-01-15T15:29:23.354Z,4.91
2023-01-15T15:34:34.075Z,4.97
2023-01-15T15:39:47.471Z,5.01
2023-01-15T15:45:14.901Z,4.98
2023-01-15T15:50:26.165Z,4.98
2023-01-15T15:55:39.351Z,4.99
2023-01-15T16:00:46.646Z,4.97
2023-01-15T16:06:01.047Z,4.97
2023-01-15T16:11:12.308Z,4.99
2023-01-15T16:16:19.695Z,5.01
2023-01-15T16:21:30.658Z,5.03
2023-01-15T16:26:38.241Z,5.15
2023-01-15T16:31:44.254Z,5.29
2023-01-15T16:36:50.156Z,5.37
2023-01-15T16:41:59.681Z,5.40
2023-01-15T16:47:06.795Z,5.43
2023-01-15T16:52:50.296Z,5.43
2023-01-15T16:58:17.356Z,5.38
2023-01-15T17:03:26.452Z,5.35
2023-01-15T17:08:39.250Z,5.34
2023-01-15T17:13:45.172Z,5.27
2023-01-15T17:18:52.151Z,5.24
2023-01-15T17:24:00.049Z,5.22
2023-01-15T17:29:06.257Z,5.19
2023-01-15T17:34:12.028Z,5.16
2023-01-15T17:39:20.336Z,5.16
2023-01-15T17:44:26.143Z,5.20
2023-01-15T17:49:32.047Z,5.20
2023-01-15T17:54:56.032Z,5.20
2023-01-15T18:00:20.873Z,5.19
2023-01-15T18:05:30.754Z,5.20
2023-01-15T18:10:36.670Z,5.19
2023-01-15T18:15:42.777Z,5.19
2023-01-15T18:20:48.444Z,5.21
2023-01-15T18:25:54.757Z,5.21
2023-01-15T18:31:00.842Z,5.16
2023-01-15T18:36:10.934Z,5.16
2023-01-15T18:41:37.049Z,5.19
2023-01-15T18:46:46.210Z,5.18
2023-01-15T18:52:12.097Z,5.14
2023-01-15T18:57:18.075Z,5.14
2023-01-15T19:02:24.786Z,5.14
2023-01-15T19:07:30.721Z,5.13
2023-01-15T19:12:37.353Z,5.09
2023-01-15T19:18:01.485Z,5.08
2023-01-15T19:23:07.401Z,5.02
2023-01-15T19:28:15.899Z,4.91
2023-01-15T19:33:21.534Z,4.81
2023-01-15T19:38:27.294Z,4.71
2023-01-15T19:43:52.354Z,4.61
2023-01-15T19:49:16.569Z,4.51
2023-01-15T19:54:42.618Z,4.45
2023-01-15T19:59:50.606Z,4.42
2023-01-15T20:04:56.442Z,4.38
2023-01-15T20:10:02.434Z,4.33
2023-01-15T20:15:09.639Z,4.29
2023-01-15T20:20:15.670Z,4.29
2023-01-15T20:25:21.480Z,4.28
2023-01-15T20:30:28.163Z,4.23
2023-01-15T20:35:34.134Z,4.23
2023-01-15T20:40:39.922Z,4.23
2023-01-15T20:45:45.786Z,4.20
2023-01-15T20:51:00.938Z,4.17
2023-01-15T20:56:15.603Z,4.17
2023-01-15T21:01:21.484Z,4.19
2023-01-15T21:06:29.840Z,4.19
2023-01-15T21:11:35.807Z,4.19
2023-01-15T21:16:41.579Z,4.21
2023-01-15T21:21:47.334Z,4.21
2023-01-15T21:26:53.189Z,4.19
2023-01-15T21:31:59.266Z,4.18
2023-01-15T21:37:04.913Z,4.18
2023-01-15T21:42:33.155Z,4.17
2023-01-15T21:47:41.374Z,4.13
2023-01-15T21:52:50.203Z,4.11
2023-01-15T21:57:56.020Z,4.11
2023-01-15T22:03:02.016Z,4.07
2023-01-15T22:08:08.583Z,4.04
2023-01-15T22:13:14.415Z,4.02
2023-01-15T22:18:20.143Z,4.00
2023-01-15T22:23:26.460Z,3.99
2023-01-15T22:28:32.083Z,3.99
2023-01-15T22:33:38.053Z,3.97
2023-01-15T22:38:43.863Z,3.94
2023-01-15T22:43:49.635Z,3.94
2023-01-15T22:48:55.320Z,3.94
2023-01-15T22:54:01.245Z,3.91
2023-01-15T22:59:07.957Z,3.88
2023-01-15T23:04:17.695Z,3.88
2023-01-15T23:09:26.410Z,3.89
2023-01-15T23:14:32.389Z,3.86
2023-01-15T23:19:38.638Z,3.85
2023-01-15T23:24:44.388Z,3.85
2023-01-15T23:29:50.072Z,3.84
2023-01-15T23:34:56.102Z,3.80
2023-01-15T23:40:01.797Z,3.79
2023-01-15T23:45:28.768Z,3.78
2023-01-15T23:50:34.806Z,3.74
2023-01-15T23:55:40.581Z,3.73
